• Join FlightAware (Why Join?)
  • Login
  • US Flag 
11:59AM EDT


 

Airport Tracker/Info


-or-


 

Live Flight TrackerFlight Track Log ✈ SKW4473 ✈ 29-Apr-2013 ✈ KHLN - KSLC

Flight Track Log - Related Links

Times and Time Zones

All times are in EDT time to prevent confusion due to time zone crossing. See the SKW4473 flight status page for this flight to view local times or setup timezone preferences in your user account.

Time Position Orientation Groundspeed Altitude Reporting Facility
EDT Latitude Longitude Course Direction KTS MPH feet Rate Location/Type
03:12PM 46.1039 -111.4705 145° Southeast  Level FlightAware Approximate
03:12PM 46.6806 -112.0261 197° South 259 298 13,600  Level Salt Lake Center
03:13PM 46.0206 -111.3872 145° Southeast  Level FlightAware Approximate
03:13PM 46.6264 -111.9558 138° Southeast 259 298 16,600  Level Salt Lake Center
03:14PM 45.9373 -111.3040 145° Southeast  Level FlightAware Approximate
03:14PM 46.5636 -111.9556 180° South 229 264 18,900  Level Salt Lake Center
03:15PM 45.8541 -111.2207 145° Southeast  Level FlightAware Approximate
03:15PM 46.4942 -111.9597 182° South 246 283 20,100  Level Salt Lake Center
03:16PM 45.7761 -111.1524 193° South  Level FlightAware Approximate
03:16PM 46.3992 -111.9717 185° South 295 339 21,400  Level Salt Lake Center
03:17PM 45.6878 -111.1960 204° Southwest  Level FlightAware Approximate
03:17PM 46.3097 -111.9608 175° South 320 368 22,900  Level Salt Lake Center
03:18PM 46.2181 -111.9614 180° South 329 379 23,600 960 Climbing Salt Lake Center
03:19PM 46.1208 -111.9608 180° South 346 398 24,900 1,200 Climbing Salt Lake Center
03:20PM 46.0250 -111.9622 181° South 345 397 26,200 1,080 Climbing Salt Lake Center
03:21PM 45.9117 -111.9622 180° South 341 392 27,200 900 Climbing Salt Lake Center
03:22PM 45.8125 -111.9653 181° South 354 407 28,100 900 Climbing Salt Lake Center
03:23PM 45.7139 -111.9675 181° South 357 411 29,100 960 Climbing Salt Lake Center
03:25PM 45.6142 -111.9675 180° South 358 412 30,100 900 Climbing Salt Lake Center
03:26PM 45.5158 -111.9678 180° South 355 409 31,000 420 Climbing Salt Lake Center
03:27PM 45.4175 -111.9703 181° South 354 407 31,000  Level Salt Lake Center
03:28PM 45.3158 -111.9717 181° South 363 418 31,000  Level Salt Lake Center
03:29PM 45.1939 -111.9733 181° South 365 420 31,000  Level Salt Lake Center
03:30PM 45.0906 -111.9731 180° South 363 418 31,000  Level Salt Lake Center
03:31PM 44.9950 -111.9742 180° South 360 414 31,000  Level Salt Lake Center
03:32PM 44.8806 -111.9756 180° South 368 423 31,000  Level Salt Lake Center
03:33PM 44.7781 -111.9792 181° South 382 440 31,000  Level Salt Lake Center
03:34PM 44.6742 -111.9797 180° South 390 449 31,000  Level Salt Lake Center
03:35PM 44.5536 -111.9808 180° South 391 450 31,000  Level Salt Lake Center
03:36PM 44.4528 -111.9808 180° South 385 443 31,000  Level Salt Lake Center
03:37PM 44.3381 -111.9828 181° South 374 430 31,000  Level Salt Lake Center
03:38PM 44.2406 -111.9844 181° South 368 423 31,000  Level Salt Lake Center
03:39PM 44.1261 -111.9858 180° South 369 425 31,000  Level Salt Lake Center
03:40PM 44.0247 -111.9875 181° South 378 435 31,000  Level Salt Lake Center
03:41PM 43.9061 -111.9878 180° South 382 440 31,000  Level Salt Lake Center
03:42PM 43.8050 -111.9897 181° South 382 440 31,000  Level Salt Lake Center
03:43PM 43.7003 -111.9894 180° South 389 448 31,000  Level Salt Lake Center
03:44PM 43.5769 -111.9886 180° South 394 453 31,000  Level Salt Lake Center
03:45PM 43.4706 -111.9903 181° South 398 458 31,000  Level Salt Lake Center
03:46PM 43.3450 -111.9911 180° South 402 463 31,000  Level Salt Lake Center
03:47PM 43.2364 -111.9908 180° South 404 465 31,000  Level Salt Lake Center
03:48PM 43.1089 -111.9947 181° South 408 470 31,000  Level Salt Lake Center
03:49PM 43.0008 -111.9928 179° South 408 470 31,000 -120 Level Salt Lake Center
03:50PM 42.8928 -111.9969 182° South 406 467 30,800 -540 Descending Salt Lake Center
03:51PM 42.7606 -111.9975 180° South 420 483 30,000 -420 Descending Salt Lake Center
03:52PM 42.6472 -112.0022 182° South 426 490 30,000  Level Salt Lake Center
03:53PM 42.5358 -112.0044 181° South 411 473 30,000  Level Salt Lake Center
03:54PM 42.4294 -112.0047 180° South 391 450 30,000 -240 Level Salt Lake Center
03:55PM 42.3197 -112.0056 180° South 392 451 29,600 -900 Descending Salt Lake Center
03:56PM 42.1731 -112.0069 180° South 427 491 28,200 -1,740 Descending Salt Lake Center
03:57PM 42.0511 -112.0094 181° South 439 505 26,100 -1,920 Descending Salt Lake Center
03:58PM 41.9403 -112.0081 179° South 407 468 24,300 -1,800 Descending Salt Lake Center
03:59PM 41.8269 -112.0108 181° South 408 470 22,500 -1,860 Descending Salt Lake Center
04:00PM 41.7758 -112.0042 174° South 395 455 21,600 -1,680 Descending Salt Lake Center
04:00PM 41.7219 -112.0211 193° South 382 440 20,800 -1,620 Descending Salt Lake Center
04:01PM 41.6886 -112.0200 179° South 377 434 20,300 -1,500 Descending Salt Lake Center
04:01PM 41.6192 -112.0375 191° South 376 433 19,300 -1,320 Descending Salt Lake Center
04:02PM 41.5861 -112.0350 177° South 371 427 19,000 -300 Descending Salt Lake Center
04:02PM 41.5208 -112.0525 191° South 357 411 19,000 -540 Level Salt Lake Center
04:03PM 41.4242 -112.0722 189° South 353 406 18,100 -1,380 Descending Salt Lake Center
04:05PM 41.3033 -112.0975 189° South 352 405 16,100 -1,440 Descending Salt Lake Center
04:06PM 41.2122 -112.1169 189° South 338 389 15,100 -600 Descending Salt Lake Center
04:07PM 41.1281 -112.1372 190° South 336 387 15,000 -600 Descending Salt Lake Center
04:08PM 41.0414 -112.1394 181° South 312 359 14,000 -1,380 Descending Salt Lake Center
04:09PM 40.9589 -112.1219 171° South 304 350 12,200 -1,500 Descending Salt Lake Center
04:10PM 40.8794 -112.1072 172° South 291 335 11,000 -540 Descending Salt Lake Center
04:11PM 40.7992 -112.0981 175° South 242 278 11,100 -180 Climbing Salt Lake Center
04:12PM 40.7319 -112.0900 175° South 243 280 10,700 -900 Descending Salt Lake Center
04:13PM 40.6644 -112.0831 176° South 244 281 9,300 -840 Descending Salt Lake Center
04:14PM 40.6050 -112.0758 175° South 214 246 9,000 -480 Descending Salt Lake Center
04:15PM 40.5878 -112.0231 113° Southeast 202 232 8,400 -840 Descending Salt Lake Center
04:16PM 40.6278 -111.9892 33° Northeast 194 223 7,400 -1,140 Descending Salt Lake Center
04:17PM 40.6767 -111.9867 North 191 220 6,400 -1,080 Descending Salt Lake Center
04:18PM 40.7272 -111.9922 355° North 147 169 5,200 -900 Descending Salt Lake Center
04:19PM 40.7647 -111.9964 355° North 142 163 4,600 -660 Descending Salt Lake Center
04:21PM 40.7833 -111.9667 North  Level FlightAware Approximate
04:28PM 40.7884 -111.9778 North  Level Estimated
04:29PM 40.7884 -111.9778 North  Level Estimated
04:30PM 40.7884 -111.9778 North  Level Estimated
04:31PM 40.7884 -111.9778 North  Level Estimated